createdAt,value
2023-02-18T00:01:33.723Z,101508.34
2023-02-18T00:04:01.331Z,101511.97
2023-02-18T00:06:32.252Z,101503.75
2023-02-18T00:09:02.278Z,101483.75
2023-02-18T00:11:31.232Z,101486.09
2023-02-18T00:14:00.411Z,101504.69
2023-02-18T00:16:29.235Z,101503.03
2023-02-18T00:18:59.153Z,101497.88
2023-02-18T00:21:26.816Z,101481.84
2023-02-18T00:23:54.348Z,101485.72
2023-02-18T00:26:21.578Z,101500.69
2023-02-18T00:28:49.317Z,101493.78
2023-02-18T00:31:22.330Z,101508.75
2023-02-18T00:33:49.444Z,101502.19
2023-02-18T00:36:19.620Z,101500.44
2023-02-18T00:38:50.754Z,101493.34
2023-02-18T00:41:18.132Z,101494.53
2023-02-18T00:43:45.061Z,101479.84
2023-02-18T00:46:13.066Z,101473.25
2023-02-18T00:48:40.477Z,101494.94
2023-02-18T00:51:09.479Z,101492.34
2023-02-18T00:53:36.415Z,101480.84
2023-02-18T00:56:03.860Z,101493.06
2023-02-18T00:58:31.048Z,101473.84
2023-02-18T01:00:59.560Z,101481.38
2023-02-18T01:03:27.114Z,101477.75
2023-02-18T01:05:54.319Z,101470.16
2023-02-18T01:08:22.638Z,101473.78
2023-02-18T01:10:54.900Z,101475.75
2023-02-18T01:13:22.302Z,101480.97
2023-02-18T01:15:49.514Z,101467.97
2023-02-18T01:18:17.063Z,101482.63
2023-02-18T01:20:44.939Z,101474.97
2023-02-18T01:23:13.956Z,101485.28
2023-02-18T01:25:41.787Z,101485.13
2023-02-18T01:28:11.304Z,101479.03
2023-02-18T01:30:38.944Z,101466.78
2023-02-18T01:33:06.038Z,101472.03
2023-02-18T01:35:33.335Z,101471.72
2023-02-18T01:38:00.223Z,101460.28
2023-02-18T01:40:30.196Z,101448.94
2023-02-18T01:42:57.512Z,101450.84
2023-02-18T01:45:38.839Z,101467.03
2023-02-18T01:48:19.731Z,101459.78
2023-02-18T01:50:56.656Z,101442.34
2023-02-18T01:53:55.920Z,101446.34
2023-02-18T01:56:42.784Z,101440.09
2023-02-18T01:59:15.546Z,101422.28
2023-02-18T02:01:45.201Z,101424.91
2023-02-18T02:04:12.338Z,101413.03
2023-02-18T02:06:41.360Z,101411.06
2023-02-18T02:09:13.551Z,101412.00
2023-02-18T02:12:08.482Z,101405.59
2023-02-18T02:15:03.075Z,101429.75
2023-02-18T02:18:13.109Z,101406.03
2023-02-18T02:21:40.396Z,101419.78
2023-02-18T02:24:42.785Z,101412.72
2023-02-18T02:27:55.449Z,101406.19
2023-02-18T02:30:42.575Z,101410.88
2023-02-18T02:33:44.518Z,101414.41
2023-02-18T02:36:54.333Z,101388.22
2023-02-18T02:39:35.405Z,101376.59
2023-02-18T02:42:39.781Z,101371.16
2023-02-18T02:45:22.184Z,101377.28
2023-02-18T02:48:09.659Z,101367.69
2023-02-18T02:50:54.882Z,101384.31
2023-02-18T02:53:27.235Z,101385.00
2023-02-18T02:55:56.142Z,101383.00
2023-02-18T02:58:24.186Z,101386.44
2023-02-18T03:01:22.900Z,101386.38
2023-02-18T03:04:21.958Z,101379.00
2023-02-18T03:07:30.111Z,101358.47
2023-02-18T03:10:05.777Z,101354.69
2023-02-18T03:12:51.411Z,101328.00
2023-02-18T03:15:35.148Z,101319.00
2023-02-18T03:18:35.449Z,101320.75
2023-02-18T03:21:15.227Z,101314.31
2023-02-18T03:23:59.512Z,101323.75
2023-02-18T03:26:31.587Z,101318.25
2023-02-18T03:29:03.978Z,101307.72
2023-02-18T03:31:34.818Z,101300.81
2023-02-18T03:34:17.277Z,101291.97
2023-02-18T03:36:45.161Z,101278.66
2023-02-18T03:39:19.234Z,101278.81
2023-02-18T03:41:47.659Z,101278.75
2023-02-18T03:44:14.559Z,101271.28
2023-02-18T03:46:44.380Z,101271.09
2023-02-18T03:49:13.302Z,101263.91
2023-02-18T03:51:40.921Z,101267.38
2023-02-18T03:54:08.508Z,101272.47
2023-02-18T03:56:37.275Z,101256.63
2023-02-18T03:59:04.681Z,101264.22
2023-02-18T04:01:31.644Z,101261.25
2023-02-18T04:03:58.597Z,101246.47
2023-02-18T04:06:25.824Z,101258.38
2023-02-18T04:08:52.877Z,101241.88
2023-02-18T04:11:19.917Z,101254.75
2023-02-18T04:13:46.898Z,101242.56
2023-02-18T04:16:14.550Z,101246.88
2023-02-18T04:18:41.500Z,101251.66
2023-02-18T04:21:08.522Z,101237.56
2023-02-18T04:23:35.514Z,101230.19
2023-02-18T04:26:02.387Z,101226.66
2023-02-18T04:28:29.275Z,101225.41
2023-02-18T04:30:56.186Z,101228.78
2023-02-18T04:33:23.269Z,101227.72
2023-02-18T04:35:50.354Z,101232.31
2023-02-18T04:38:17.253Z,101225.81
2023-02-18T04:40:44.173Z,101218.03
2023-02-18T04:43:11.337Z,101206.69
2023-02-18T04:45:38.229Z,101216.88
2023-02-18T04:48:05.512Z,101194.94
2023-02-18T04:50:32.418Z,101193.28
2023-02-18T04:52:59.290Z,101194.13
2023-02-18T04:55:26.242Z,101177.06
2023-02-18T04:57:53.080Z,101145.72
2023-02-18T05:00:20.774Z,101170.06
2023-02-18T05:02:48.120Z,101172.25
2023-02-18T05:05:15.543Z,101168.50
2023-02-18T05:07:42.661Z,101163.81
2023-02-18T05:10:17.602Z,101167.25
2023-02-18T05:12:44.590Z,101169.88
2023-02-18T05:15:11.849Z,101167.06
2023-02-18T05:17:38.747Z,101156.22
2023-02-18T05:20:09.616Z,101143.19
2023-02-18T05:22:36.897Z,101165.81
2023-02-18T05:25:04.473Z,101152.28
2023-02-18T05:27:31.565Z,101148.50
2023-02-18T05:29:58.456Z,101136.69
2023-02-18T05:32:25.494Z,101135.84
2023-02-18T05:34:52.613Z,101129.31
2023-02-18T05:37:19.962Z,101116.75
2023-02-18T05:39:46.837Z,101106.19
2023-02-18T05:42:13.833Z,101098.88
2023-02-18T05:44:40.764Z,101103.00
2023-02-18T05:47:11.810Z,101105.81
2023-02-18T05:49:41.147Z,101078.28
2023-02-18T05:52:09.108Z,101061.88
2023-02-18T05:54:37.364Z,101066.53
2023-02-18T05:57:05.060Z,101067.53
2023-02-18T05:59:32.229Z,101072.13
2023-02-18T06:01:59.172Z,101053.31
2023-02-18T06:04:26.163Z,101047.06
2023-02-18T06:06:53.019Z,101039.97
2023-02-18T06:09:19.933Z,101038.28
2023-02-18T06:11:46.852Z,101031.06
2023-02-18T06:14:13.891Z,101027.53
2023-02-18T06:16:40.782Z,101026.53
2023-02-18T06:19:07.972Z,101015.44
2023-02-18T06:21:34.869Z,101022.88
2023-02-18T06:24:01.741Z,101026.44
2023-02-18T06:26:28.655Z,101000.72
2023-02-18T06:28:55.597Z,101006.75
2023-02-18T06:31:22.653Z,101007.63
2023-02-18T06:33:49.630Z,100999.59
2023-02-18T06:36:16.653Z,100997.09
2023-02-18T06:38:45.361Z,100985.03
2023-02-18T06:41:13.438Z,100995.16
2023-02-18T06:43:41.641Z,100986.22
2023-02-18T06:46:09.674Z,100989.59
2023-02-18T06:48:36.819Z,100985.84
2023-02-18T06:51:04.085Z,100976.59
2023-02-18T06:53:31.037Z,100978.75
2023-02-18T06:55:58.458Z,100970.47
2023-02-18T06:58:25.598Z,100963.09
2023-02-18T07:00:52.532Z,100960.97
2023-02-18T07:03:19.707Z,100961.47
2023-02-18T07:05:46.621Z,100959.56
2023-02-18T07:08:13.609Z,100954.31
2023-02-18T07:10:40.684Z,100940.94
2023-02-18T07:13:07.608Z,100938.81
2023-02-18T07:15:34.539Z,100934.72
2023-02-18T07:18:01.604Z,100922.88
2023-02-18T07:20:28.647Z,100926.84
2023-02-18T07:22:55.905Z,100920.94
2023-02-18T07:25:23.478Z,100907.25
2023-02-18T07:27:51.557Z,100927.91
2023-02-18T07:30:20.171Z,100910.50
2023-02-18T07:32:47.137Z,100898.66
2023-02-18T07:35:15.996Z,100896.72
2023-02-18T07:37:48.334Z,100909.38
2023-02-18T07:40:19.913Z,100887.75
2023-02-18T07:42:47.048Z,100892.72
2023-02-18T07:45:14.830Z,100887.97
2023-02-18T07:47:42.570Z,100905.28
2023-02-18T07:50:10.502Z,100881.38
2023-02-18T07:52:37.622Z,100888.38
2023-02-18T07:55:04.766Z,100886.53
2023-02-18T07:57:31.719Z,100894.59
2023-02-18T07:59:58.701Z,100885.34
2023-02-18T08:02:25.883Z,100902.66
2023-02-18T08:04:52.893Z,100892.25
2023-02-18T08:07:22.892Z,100889.75
2023-02-18T08:09:50.756Z,100894.59
2023-02-18T08:12:18.136Z,100880.50
2023-02-18T08:14:45.063Z,100888.97
2023-02-18T08:17:12.038Z,100872.94
2023-02-18T08:19:39.118Z,100872.31
2023-02-18T08:22:06.018Z,100862.03
2023-02-18T08:24:32.936Z,100875.06
2023-02-18T08:27:01.573Z,100849.34
2023-02-18T08:29:29.601Z,100865.28
2023-02-18T08:31:58.114Z,100870.31
2023-02-18T08:34:26.044Z,100854.50
2023-02-18T08:36:53.080Z,100857.50
2023-02-18T08:39:19.975Z,100860.94
2023-02-18T08:41:46.904Z,100861.66
2023-02-18T08:44:13.983Z,100866.06
2023-02-18T08:46:41.140Z,100862.63
2023-02-18T08:49:08.707Z,100872.00
2023-02-18T08:51:35.726Z,100850.88
2023-02-18T08:54:02.911Z,100852.25
2023-02-18T08:56:30.042Z,100824.31
2023-02-18T08:58:56.950Z,100852.81
2023-02-18T09:01:23.964Z,100850.19
2023-02-18T09:03:50.967Z,100837.97
2023-02-18T09:06:17.919Z,100855.09
2023-02-18T09:08:45.089Z,100832.50
2023-02-18T09:11:12.542Z,100848.72
2023-02-18T09:13:39.666Z,100864.88
2023-02-18T09:16:18.676Z,100860.94
2023-02-18T09:18:47.214Z,100861.78
2023-02-18T09:21:19.229Z,100860.31
2023-02-18T09:23:46.468Z,100858.25
2023-02-18T09:26:16.853Z,100864.34
2023-02-18T09:28:44.291Z,100864.75
2023-02-18T09:31:18.304Z,100842.13
2023-02-18T09:33:50.661Z,100849.97
2023-02-18T09:36:18.505Z,100846.94
2023-02-18T09:38:45.755Z,100824.88
2023-02-18T09:41:37.594Z,100832.03
2023-02-18T09:44:26.152Z,100836.56
2023-02-18T09:47:03.704Z,100842.31
2023-02-18T09:49:35.961Z,100830.97
2023-02-18T09:52:20.708Z,100827.53
2023-02-18T09:54:49.323Z,100820.69
2023-02-18T09:57:30.868Z,100818.44
2023-02-18T10:00:05.204Z,100814.28
2023-02-18T10:02:42.135Z,100802.63
2023-02-18T10:05:15.173Z,100821.38
2023-02-18T10:07:43.181Z,100817.81
2023-02-18T10:10:45.426Z,100818.78
2023-02-18T10:13:21.687Z,100823.31
2023-02-18T10:15:50.371Z,100823.94
2023-02-18T10:18:26.256Z,100822.72
2023-02-18T10:21:18.449Z,100827.50
2023-02-18T10:24:10.580Z,100828.88
2023-02-18T10:26:39.056Z,100825.41
2023-02-18T10:29:21.430Z,100841.56
2023-02-18T10:32:11.467Z,100817.94
2023-02-18T10:34:49.683Z,100817.38
2023-02-18T10:37:44.674Z,100846.06
2023-02-18T10:40:35.746Z,100850.38
2023-02-18T10:43:02.567Z,100845.56
2023-02-18T10:46:08.046Z,100837.00
2023-02-18T10:49:12.600Z,100843.84
2023-02-18T10:51:49.422Z,100839.97
2023-02-18T10:54:16.325Z,100830.38
2023-02-18T10:56:52.095Z,100843.00
2023-02-18T10:59:32.245Z,100846.88
2023-02-18T11:02:13.546Z,100845.44
2023-02-18T11:04:44.146Z,100852.13
2023-02-18T11:07:26.046Z,100826.16
2023-02-18T11:09:56.095Z,100842.44
2023-02-18T11:12:26.155Z,100837.59
2023-02-18T11:15:32.008Z,100835.38
2023-02-18T11:18:36.268Z,100850.78
2023-02-18T11:21:10.651Z,100838.41
2023-02-18T11:23:48.458Z,100824.78
2023-02-18T11:26:18.741Z,100837.78
2023-02-18T11:28:49.461Z,100842.75
2023-02-18T11:31:36.644Z,100846.03
2023-02-18T11:34:03.742Z,100849.56
2023-02-18T11:36:34.953Z,100838.66
2023-02-18T11:39:13.273Z,100844.31
2023-02-18T11:41:48.169Z,100857.84
2023-02-18T11:44:49.492Z,100859.34
2023-02-18T11:47:16.256Z,100861.50
2023-02-18T11:49:45.222Z,100828.19
2023-02-18T11:52:19.328Z,100861.50
2023-02-18T11:55:24.895Z,100859.69
2023-02-18T11:58:07.102Z,100854.47
2023-02-18T12:00:47.412Z,100862.91
2023-02-18T12:03:48.652Z,100857.53
2023-02-18T12:06:39.811Z,100858.63
2023-02-18T12:09:26.576Z,100867.44
2023-02-18T12:12:04.606Z,100858.16
2023-02-18T12:14:33.390Z,100846.78
2023-02-18T12:17:45.439Z,100875.50
2023-02-18T12:20:49.957Z,100856.31
2023-02-18T12:23:50.384Z,100873.94
2023-02-18T12:26:27.708Z,100865.78
2023-02-18T12:29:37.404Z,100876.31
2023-02-18T12:32:28.460Z,100872.66
2023-02-18T12:35:44.298Z,100873.41
2023-02-18T12:39:01.786Z,100877.41
2023-02-18T12:42:06.961Z,100863.13
2023-02-18T12:44:45.766Z,100864.63
2023-02-18T12:47:46.501Z,100869.22
2023-02-18T12:50:36.454Z,100877.31
2023-02-18T12:53:43.004Z,100873.66
2023-02-18T12:56:36.095Z,100883.56
2023-02-18T12:59:14.499Z,100892.72
2023-02-18T13:02:35.819Z,100887.34
2023-02-18T13:05:30.557Z,100883.69
2023-02-18T13:08:19.482Z,100886.13
2023-02-18T13:11:13.046Z,100885.91
2023-02-18T13:14:09.002Z,100877.22
2023-02-18T13:16:38.947Z,100878.59
2023-02-18T13:19:50.836Z,100902.16
2023-02-18T13:22:23.006Z,100884.31
2023-02-18T13:24:52.181Z,100900.13
2023-02-18T13:27:41.064Z,100891.97
2023-02-18T13:30:43.545Z,100885.63
2023-02-18T13:33:46.344Z,100861.34
2023-02-18T13:36:36.971Z,100899.59
2023-02-18T13:39:21.869Z,100894.00
2023-02-18T13:41:51.662Z,100873.34
2023-02-18T13:44:22.152Z,100897.31
2023-02-18T13:46:50.818Z,100874.28
2023-02-18T13:49:26.320Z,100867.09
2023-02-18T13:51:59.168Z,100878.38
2023-02-18T13:54:30.236Z,100900.31
2023-02-18T13:57:17.476Z,100898.38
2023-02-18T13:59:54.351Z,100873.22
2023-02-18T14:02:21.533Z,100906.75
2023-02-18T14:05:02.737Z,100906.00
2023-02-18T14:07:35.872Z,100911.03
2023-02-18T14:10:18.443Z,100903.94
2023-02-18T14:12:57.765Z,100911.88
2023-02-18T14:15:24.829Z,100900.41
2023-02-18T14:18:13.422Z,100912.97
2023-02-18T14:20:40.283Z,100916.19
2023-02-18T14:23:43.572Z,100910.69
2023-02-18T14:26:13.841Z,100902.00
2023-02-18T14:28:49.150Z,100913.72
2023-02-18T14:31:16.024Z,100922.31
2023-02-18T14:34:32.216Z,100912.63
2023-02-18T14:37:34.737Z,100917.25
2023-02-18T14:41:07.737Z,100929.31
2023-02-18T14:44:16.172Z,100929.88
2023-02-18T14:47:17.909Z,100930.50
2023-02-18T14:49:49.972Z,100925.47
2023-02-18T14:52:28.757Z,100939.44
2023-02-18T14:54:56.852Z,100930.19
2023-02-18T14:57:45.779Z,100938.75
2023-02-18T15:00:25.310Z,100945.03
2023-02-18T15:02:55.239Z,100937.50
2023-02-18T15:05:26.913Z,100933.22
2023-02-18T15:08:01.321Z,100947.59
2023-02-18T15:10:41.114Z,100946.34
2023-02-18T15:13:20.729Z,100952.47
2023-02-18T15:15:55.110Z,100936.34
2023-02-18T15:18:44.039Z,100936.34
2023-02-18T15:21:43.417Z,100966.56
2023-02-18T15:24:36.967Z,100951.03
2023-02-18T15:27:14.000Z,100958.38
2023-02-18T15:29:41.858Z,100953.50
2023-02-18T15:32:29.451Z,100960.38
2023-02-18T15:35:01.759Z,100958.44
2023-02-18T15:37:30.114Z,100954.47
2023-02-18T15:40:00.665Z,100951.78
2023-02-18T15:42:32.123Z,100954.59
2023-02-18T15:45:24.850Z,100965.78
2023-02-18T15:47:56.485Z,100957.28
2023-02-18T15:50:37.849Z,100970.75
2023-02-18T15:53:15.808Z,100952.22
2023-02-18T15:55:50.184Z,100977.72
2023-02-18T15:58:22.337Z,100975.94
2023-02-18T16:01:07.470Z,100986.47
2023-02-18T16:03:46.731Z,100991.13
2023-02-18T16:06:22.558Z,100998.13
2023-02-18T16:09:03.786Z,100994.03
2023-02-18T16:11:37.183Z,100994.50
2023-02-18T16:14:06.135Z,100991.16
2023-02-18T16:16:39.675Z,100994.91
2023-02-18T16:19:19.807Z,100985.53
2023-02-18T16:21:48.022Z,101008.25
2023-02-18T16:24:26.768Z,101009.97
2023-02-18T16:27:01.491Z,101004.94
2023-02-18T16:29:37.671Z,101009.84
2023-02-18T16:32:04.848Z,101007.69
2023-02-18T16:34:31.861Z,101024.06
2023-02-18T16:37:17.711Z,101017.94
2023-02-18T16:39:44.677Z,101024.06
2023-02-18T16:42:13.195Z,101035.47
2023-02-18T16:44:41.537Z,101027.09
2023-02-18T16:47:16.141Z,101036.44
2023-02-18T16:49:46.649Z,101026.13
2023-02-18T16:52:17.894Z,101040.00
2023-02-18T16:54:45.015Z,101032.03
2023-02-18T16:57:11.930Z,101051.84
2023-02-18T16:59:41.383Z,101030.88
2023-02-18T17:02:19.927Z,101055.00
2023-02-18T17:04:47.278Z,101056.91
2023-02-18T17:07:14.586Z,101043.91
2023-02-18T17:09:41.727Z,101050.13
2023-02-18T17:12:09.799Z,101052.63
2023-02-18T17:14:37.010Z,101063.59
2023-02-18T17:17:11.296Z,101065.44
2023-02-18T17:19:38.230Z,101057.47
2023-02-18T17:22:05.872Z,101052.19
2023-02-18T17:24:32.757Z,101067.28
2023-02-18T17:26:59.809Z,101069.22
2023-02-18T17:29:26.664Z,101091.28
2023-02-18T17:31:57.862Z,101079.41
2023-02-18T17:34:31.089Z,101078.25
2023-02-18T17:36:58.497Z,101094.41
2023-02-18T17:39:25.396Z,101106.91
2023-02-18T17:41:52.325Z,101100.00
2023-02-18T17:44:24.020Z,101091.72
2023-02-18T17:46:51.070Z,101104.41
2023-02-18T17:49:18.377Z,101103.75
2023-02-18T17:51:45.709Z,101100.22
2023-02-18T17:54:18.851Z,101096.66
2023-02-18T17:56:46.555Z,101114.22
2023-02-18T17:59:13.499Z,101100.94
2023-02-18T18:01:42.550Z,101113.78
2023-02-18T18:04:20.002Z,101119.16
2023-02-18T18:06:47.309Z,101117.44
2023-02-18T18:09:14.330Z,101113.25
2023-02-18T18:11:41.632Z,101120.75
2023-02-18T18:14:13.332Z,101124.84
2023-02-18T18:16:40.470Z,101125.50
2023-02-18T18:19:08.326Z,101130.47
2023-02-18T18:21:38.708Z,101121.75
2023-02-18T18:24:06.855Z,101123.34
2023-02-18T18:26:33.879Z,101129.81
2023-02-18T18:29:00.800Z,101131.09
2023-02-18T18:31:27.794Z,101139.28
2023-02-18T18:33:54.919Z,101139.94
2023-02-18T18:36:24.255Z,101129.56
2023-02-18T18:38:51.565Z,101129.56
2023-02-18T18:41:21.909Z,101147.44
2023-02-18T18:43:49.749Z,101123.63
2023-02-18T18:46:17.382Z,101145.72
2023-02-18T18:48:44.325Z,101150.38
2023-02-18T18:51:21.644Z,101145.06
2023-02-18T18:53:48.611Z,101142.50
2023-02-18T18:56:15.588Z,101127.72
2023-02-18T18:58:42.510Z,101153.44
2023-02-18T19:01:20.128Z,101150.41
2023-02-18T19:03:48.467Z,101132.97
2023-02-18T19:06:17.020Z,101145.34
2023-02-18T19:08:45.479Z,101151.16
2023-02-18T19:11:13.931Z,101130.16
2023-02-18T19:13:41.663Z,101135.88
2023-02-18T19:16:13.404Z,101139.53
2023-02-18T19:18:40.473Z,101143.19
2023-02-18T19:21:07.496Z,101144.50
2023-02-18T19:23:34.994Z,101127.25
2023-02-18T19:26:02.485Z,101147.84
2023-02-18T19:28:31.227Z,101142.47
2023-02-18T19:30:58.268Z,101151.59
2023-02-18T19:33:25.325Z,101156.09
2023-02-18T19:35:52.198Z,101145.88
2023-02-18T19:38:19.340Z,101148.34
2023-02-18T19:40:47.140Z,101166.66
2023-02-18T19:43:14.546Z,101162.44
2023-02-18T19:45:47.320Z,101159.75
2023-02-18T19:48:16.131Z,101149.69
2023-02-18T19:50:43.706Z,101132.97
2023-02-18T19:53:11.185Z,101149.56
2023-02-18T19:55:38.875Z,101129.44
2023-02-18T19:58:07.086Z,101139.00
2023-02-18T20:00:34.160Z,101129.63
2023-02-18T20:03:01.788Z,101134.25
2023-02-18T20:05:28.853Z,101136.00
2023-02-18T20:07:55.877Z,101141.03
2023-02-18T20:10:23.449Z,101145.16
2023-02-18T20:12:54.326Z,101132.47
2023-02-18T20:15:22.256Z,101128.03
2023-02-18T20:17:50.024Z,101134.50
2023-02-18T20:20:18.204Z,101130.84
2023-02-18T20:22:45.763Z,101131.47
2023-02-18T20:25:12.675Z,101114.47
2023-02-18T20:27:50.961Z,101128.78
2023-02-18T20:30:25.967Z,101127.25
2023-02-18T20:32:52.937Z,101106.78
2023-02-18T20:35:19.862Z,101116.16
2023-02-18T20:37:46.769Z,101133.25
2023-02-18T20:40:13.757Z,101132.16
2023-02-18T20:42:41.953Z,101133.91
2023-02-18T20:45:09.619Z,101127.00
2023-02-18T20:47:36.547Z,101126.13
2023-02-18T20:50:04.187Z,101116.47
2023-02-18T20:52:32.979Z,101106.66
2023-02-18T20:55:01.494Z,101117.09
2023-02-18T20:57:28.456Z,101075.81
2023-02-18T20:59:55.541Z,101105.94
2023-02-18T21:02:22.477Z,101108.28
2023-02-18T21:04:49.414Z,101109.16
2023-02-18T21:07:16.317Z,101100.44
2023-02-18T21:09:43.201Z,101098.06
2023-02-18T21:12:11.024Z,101099.47
2023-02-18T21:14:37.962Z,101083.00
2023-02-18T21:17:04.944Z,101084.97
2023-02-18T21:19:32.131Z,101092.53
2023-02-18T21:21:59.992Z,101092.53
2023-02-18T21:24:27.454Z,101088.50
2023-02-18T21:26:54.456Z,101097.31
2023-02-18T21:29:21.421Z,101081.84
2023-02-18T21:31:48.526Z,101082.06
2023-02-18T21:34:16.183Z,101097.47
2023-02-18T21:36:44.219Z,101086.16
2023-02-18T21:39:11.357Z,101084.75
2023-02-18T21:41:40.968Z,101098.53
2023-02-18T21:44:09.129Z,101097.78
2023-02-18T21:46:37.184Z,101084.84
2023-02-18T21:49:05.920Z,101084.66
2023-02-18T21:51:56.901Z,101089.72
2023-02-18T21:54:33.610Z,101093.25
2023-02-18T21:57:01.749Z,101089.72
2023-02-18T21:59:30.331Z,101090.88
2023-02-18T22:02:01.338Z,101077.84
2023-02-18T22:04:31.270Z,101082.16
2023-02-18T22:06:58.617Z,101077.53
2023-02-18T22:09:26.123Z,101072.38
2023-02-18T22:11:53.452Z,101060.00
2023-02-18T22:14:20.681Z,101060.44
2023-02-18T22:16:47.821Z,101036.88
2023-02-18T22:19:15.193Z,101030.00
2023-02-18T22:21:42.851Z,101035.91
2023-02-18T22:24:13.273Z,101050.44
2023-02-18T22:26:40.400Z,101050.81
2023-02-18T22:29:07.292Z,101068.38
2023-02-18T22:31:34.479Z,101059.22
2023-02-18T22:34:01.842Z,101059.22
2023-02-18T22:36:32.505Z,101059.03
2023-02-18T22:39:00.690Z,101066.78
2023-02-18T22:41:29.632Z,101043.31
2023-02-18T22:44:07.502Z,101049.13
2023-02-18T22:46:36.303Z,101037.53
2023-02-18T22:49:05.871Z,101022.91
2023-02-18T22:51:39.346Z,101026.78
2023-02-18T22:54:11.791Z,101030.09
2023-02-18T22:56:39.215Z,101032.03
2023-02-18T22:59:06.608Z,101027.63
2023-02-18T23:01:40.113Z,101020.53
2023-02-18T23:04:13.735Z,101014.19
2023-02-18T23:06:43.784Z,101016.00
2023-02-18T23:09:18.676Z,101017.22
2023-02-18T23:11:45.698Z,100982.28
2023-02-18T23:14:18.476Z,100976.53
2023-02-18T23:17:15.195Z,100978.97
2023-02-18T23:19:50.735Z,100984.59
2023-02-18T23:22:38.049Z,100977.56
2023-02-18T23:25:06.016Z,100978.88
2023-02-18T23:27:32.943Z,100978.66
2023-02-18T23:29:59.899Z,100962.75
2023-02-18T23:32:28.783Z,100965.00
2023-02-18T23:34:55.715Z,100957.78
2023-02-18T23:37:43.936Z,100948.88
2023-02-18T23:40:13.659Z,100952.84
2023-02-18T23:42:40.612Z,100936.38
2023-02-18T23:45:08.082Z,100947.66
2023-02-18T23:47:34.985Z,100939.72
2023-02-18T23:50:02.066Z,100942.28
2023-02-18T23:52:28.919Z,100934.34
2023-02-18T23:54:55.808Z,100928.97
2023-02-18T23:57:22.688Z,100920.91
2023-02-18T23:59:49.619Z,100929.09
